Time;durP1;ratioP1;P1;durP2;ratioP2;P2;SDS_P1;SDS_P2;PMS_P1;PMS_P2;Temp;Humidity;BMP_temperature;BMP_pressure;BME280_temperature;BME280_humidity;BME280_pressure;Samples;Min_cycle;Max_cycle;Signal;HPM_P1;HPM_P2
2023/04/06 00:03:27;;;;;;;2.70;1.55;;;;;;;16.34;44.76;96828.19;10335879;28;20044;-25
2023/04/06 00:08:28;;;;;;;1.87;1.43;;;;;;;16.33;44.38;96819.78;10343352;28;20041;-25
2023/04/06 00:13:29;;;;;;;1.42;1.27;;;;;;;16.33;44.23;96817.25;10331484;28;20304;-25
2023/04/06 00:18:29;;;;;;;2.03;1.30;;;;;;;16.33;44.49;96813.88;10329744;28;20026;-25
2023/04/06 00:23:30;;;;;;;1.90;1.07;;;;;;;16.32;44.01;96809.66;10326269;28;20093;-25
2023/04/06 00:28:30;;;;;;;1.85;1.20;;;;;;;16.33;44.17;96806.28;10334363;28;20440;-25
2023/04/06 00:33:31;;;;;;;2.00;1.17;;;;;;;16.33;44.20;96804.63;10337658;28;20040;-26
2023/04/06 00:38:32;;;;;;;1.92;1.38;;;;;;;16.30;44.37;96804.56;10316651;28;20418;-25
2023/04/06 00:43:32;;;;;;;1.88;1.40;;;;;;;16.31;43.79;96797.84;10341284;28;20050;-25
2023/04/06 00:48:33;;;;;;;3.08;1.30;;;;;;;16.32;44.17;96790.31;10326294;28;20030;-25
2023/04/06 00:53:34;;;;;;;3.42;1.20;;;;;;;16.31;44.06;96782.69;10346323;28;20034;-26
2023/04/06 00:58:38;;;;;;;2.67;1.30;;;;;;;16.35;45.18;96789.50;10311265;28;20451;-25
2023/04/06 01:03:42;;;;;;;1.65;1.33;;;;;;;16.36;44.82;96792.00;10312810;28;20549;-25
2023/04/06 01:08:43;;;;;;;2.20;1.45;;;;;;;16.32;43.55;96785.25;10308475;28;20037;-25
2023/04/06 01:13:55;;;;;;;3.25;1.50;;;;;;;16.32;43.73;96785.25;10308111;28;20513;-25
2023/04/06 01:19:20;;;;;;;1.98;1.27;;;;;;;16.33;43.99;96781.03;10324125;28;20027;-25
2023/04/06 01:24:25;;;;;;;4.05;1.10;;;;;;;16.30;43.50;96771.72;10318417;28;20037;-25
2023/04/06 01:29:34;;;;;;;1.83;1.27;;;;;;;16.31;43.93;96773.44;10322690;28;20524;-25
2023/04/06 01:34:37;;;;;;;1.52;1.20;;;;;;;16.29;44.27;96765.00;10321837;28;20038;-25
2023/04/06 01:39:39;;;;;;;2.10;1.27;;;;;;;16.27;43.46;96759.09;10323159;28;20073;-25
2023/04/06 01:44:41;;;;;;;2.53;1.13;;;;;;;16.30;43.67;96761.63;10322257;28;20502;-25
2023/04/06 01:49:46;;;;;;;2.13;1.48;;;;;;;16.29;43.38;96757.41;10342822;28;20091;-25
2023/04/06 01:54:47;;;;;;;1.85;1.40;;;;;;;16.30;43.23;96760.78;10323539;28;20097;-25
2023/04/06 01:59:51;;;;;;;1.98;1.25;;;;;;;16.27;43.52;96758.25;10344281;28;20060;-25
2023/04/06 02:05:20;;;;;;;1.52;0.93;;;;;;;16.27;44.17;96761.59;10340668;28;20108;-25
2023/04/06 02:10:20;;;;;;;1.27;1.17;;;;;;;16.27;43.15;96760.78;10327122;28;20022;-26
2023/04/06 02:15:21;;;;;;;1.33;1.00;;;;;;;16.30;44.39;96760.78;10338556;28;20442;-26
2023/04/06 02:20:22;;;;;;;4.55;1.60;;;;;;;16.32;44.88;96754.06;10338859;28;20026;-26
2023/04/06 02:25:22;;;;;;;1.67;1.10;;;;;;;16.30;43.94;96751.53;10321478;28;20042;-26
2023/04/06 02:30:25;;;;;;;2.00;1.30;;;;;;;16.29;43.58;96752.34;10321193;28;20658;-25
2023/04/06 02:35:25;;;;;;;1.83;1.33;;;;;;;16.26;43.63;96744.75;10320333;28;20030;-25
2023/04/06 02:40:28;;;;;;;2.30;1.25;;;;;;;16.27;43.48;96746.44;10320211;28;20309;-25
2023/04/06 02:45:30;;;;;;;3.63;1.35;;;;;;;16.23;43.53;96747.28;10320692;28;20391;-25
2023/04/06 02:50:32;;;;;;;1.75;0.98;;;;;;;16.27;43.09;96750.69;10319892;28;20049;-25
2023/04/06 02:55:37;;;;;;;3.33;1.67;;;;;;;16.26;43.05;96749.81;10319429;28;20033;-26
2023/04/06 03:00:37;;;;;;;1.85;1.10;;;;;;;16.24;43.22;96741.38;10319907;28;20030;-25
2023/04/06 03:05:38;;;;;;;1.73;1.25;;;;;;;16.24;43.05;96740.53;10339350;28;20609;-26
2023/04/06 03:10:40;;;;;;;1.45;1.25;;;;;;;16.25;43.63;96743.06;10324030;28;20391;-25
2023/04/06 03:15:40;;;;;;;1.65;1.25;;;;;;;16.26;42.99;96738.84;10311321;28;20026;-25
2023/04/06 03:20:47;;;;;;;2.60;1.05;;;;;;;16.26;43.29;96733.81;10315766;28;20402;-25
2023/04/06 03:25:50;;;;;;;4.13;1.20;;;;;;;16.23;43.38;96737.16;10318453;28;20033;-25
2023/04/06 03:30:53;;;;;;;1.70;1.00;;;;;;;16.26;43.49;96739.72;10340801;28;20053;-25
2023/04/06 03:36:09;;;;;;;1.50;1.07;;;;;;;16.29;43.88;96734.66;10326737;28;20030;-25
2023/04/06 03:41:14;;;;;;;1.23;1.00;;;;;;;16.31;42.69;96738.09;10317405;28;20034;-25
2023/04/06 03:46:20;;;;;;;1.60;1.10;;;;;;;16.32;42.71;96743.97;10310362;28;20030;-25
2023/04/06 03:51:23;;;;;;;1.52;1.02;;;;;;;16.32;41.19;96742.31;10316968;28;20117;-25
2023/04/06 03:56:24;;;;;;;1.50;1.00;;;;;;;16.31;42.37;96743.13;10317075;28;20026;-25
2023/04/06 04:01:25;;;;;;;1.83;1.05;;;;;;;16.29;42.49;96747.31;10327456;28;20750;-26
2023/04/06 04:06:28;;;;;;;1.50;1.20;;;;;;;16.28;42.70;96758.25;10316980;28;20065;-26
2023/04/06 04:11:29;;;;;;;1.30;1.10;;;;;;;16.27;42.79;96765.84;10334898;28;20081;-25
2023/04/06 04:16:32;;;;;;;1.83;1.25;;;;;;;16.26;42.65;96764.97;10309052;28;20120;-25
2023/04/06 04:21:32;;;;;;;1.15;0.98;;;;;;;16.17;40.30;96764.03;10285939;28;20057;-25
2023/04/06 04:26:38;;;;;;;2.80;1.25;;;;;;;16.03;38.94;96771.47;10316740;28;20422;-25
2023/04/06 04:31:40;;;;;;;2.00;1.17;;;;;;;16.13;41.38;96765.66;10316467;28;20407;-25
2023/04/06 04:36:48;;;;;;;2.35;1.30;;;;;;;16.17;41.84;96764.88;10308779;28;20122;-25
2023/04/06 04:41:57;;;;;;;2.15;1.00;;;;;;;16.25;41.37;96772.53;10326507;28;20057;-26
2023/04/06 04:46:57;;;;;;;1.90;1.10;;;;;;;16.31;39.72;96778.50;10324840;28;20557;-26
2023/04/06 04:52:06;;;;;;;1.20;1.10;;;;;;;16.32;41.82;96779.34;10317185;28;20029;-25
2023/04/06 04:57:31;;;;;;;1.45;1.00;;;;;;;16.36;41.29;96773.50;10325352;28;20034;-25
2023/04/06 05:02:31;;;;;;;4.38;3.35;;;;;;;16.38;40.07;96777.72;10324430;28;20497;-25
2023/04/06 05:07:49;;;;;;;3.72;1.45;;;;;;;16.36;40.72;96779.38;10318662;28;20042;-25
2023/04/06 05:12:59;;;;;;;1.38;1.10;;;;;;;16.34;40.73;96783.56;10328919;28;20080;-25
2023/04/06 05:18:01;;;;;;;3.00;1.60;;;;;;;16.27;40.25;96786.88;10315799;28;20042;-25
2023/04/06 05:23:06;;;;;;;8.50;1.77;;;;;;;16.03;38.63;96791.66;10331037;28;20092;-25
2023/04/06 05:28:08;;;;;;;2.08;1.63;;;;;;;16.12;40.43;96790.94;10325802;28;20037;-25
2023/04/06 05:33:12;;;;;;;4.88;1.40;;;;;;;16.16;41.19;96787.59;10324433;28;20037;-25
2023/04/06 05:38:27;;;;;;;4.97;1.75;;;;;;;16.12;41.35;96796.81;10331194;28;20022;-25
2023/04/06 05:43:30;;;;;;;4.22;2.03;;;;;;;16.13;41.27;96803.56;10345719;28;20038;-25
2023/04/06 05:48:32;;;;;;;3.28;1.42;;;;;;;16.13;41.08;96798.50;10314858;28;20042;-25
2023/04/06 05:53:33;;;;;;;3.22;1.40;;;;;;;16.15;41.20;96801.91;10321594;28;20026;-25
2023/04/06 05:58:34;;;;;;;5.30;1.40;;;;;;;16.09;40.13;96801.84;10320391;28;20521;-25
2023/04/06 06:03:35;;;;;;;2.90;1.60;;;;;;;16.13;41.12;96803.56;10323112;28;20038;-25
2023/04/06 06:08:36;;;;;;;21.20;2.80;;;;;;;16.12;39.96;96806.09;10304854;28;20034;-26
2023/04/06 06:13:42;;;;;;;6.78;1.98;;;;;;;16.14;41.22;96806.94;10329155;28;20418;-25
2023/04/06 06:18:43;;;;;;;4.90;1.98;;;;;;;16.18;40.85;96812.03;10319570;28;20026;-25
2023/04/06 06:23:44;;;;;;;9.23;1.80;;;;;;;16.19;40.62;96807.84;10332517;28;20442;-26
2023/04/06 06:28:48;;;;;;;3.95;1.92;;;;;;;16.23;40.56;96812.94;10320488;28;20134;-25
2023/04/06 06:33:51;;;;;;;7.80;2.65;;;;;;;16.22;40.88;96808.72;10321184;28;20049;-25
2023/04/06 06:38:52;;;;;;;7.50;2.50;;;;;;;16.22;40.30;96813.78;10345487;28;20022;-25
2023/04/06 06:43:54;;;;;;;9.32;2.83;;;;;;;16.22;40.80;96813.78;10323200;28;20405;-25
2023/04/06 06:48:55;;;;;;;3.58;1.58;;;;;;;16.24;38.92;96802.00;10316571;28;20022;-25
2023/04/06 06:53:58;;;;;;;3.22;1.63;;;;;;;16.32;38.48;96812.19;10304476;28;20037;-25
2023/04/06 06:58:58;;;;;;;3.58;1.45;;;;;;;16.30;38.89;96814.69;10301934;28;20018;-25
2023/04/06 07:03:59;;;;;;;4.60;1.70;;;;;;;16.27;42.50;96809.59;10307173;28;20033;-25
2023/04/06 07:08:59;;;;;;;4.35;2.00;;;;;;;16.27;42.15;96807.09;10323162;28;20032;-26
2023/04/06 07:14:00;;;;;;;3.35;2.10;;;;;;;16.27;42.98;96812.13;10312182;28;20030;-25
2023/04/06 07:19:00;;;;;;;5.70;1.67;;;;;;;16.30;42.48;96807.09;10340434;28;20034;-25
2023/04/06 07:24:01;;;;;;;3.83;1.88;;;;;;;16.29;43.33;96807.94;10315038;28;20371;-25
2023/04/06 07:29:02;;;;;;;6.78;1.52;;;;;;;16.29;43.72;96802.06;10342116;28;20076;-25
2023/04/06 07:34:02;;;;;;;6.28;1.83;;;;;;;16.30;43.78;96801.22;10318550;28;20461;-25
2023/04/06 07:39:03;;;;;;;3.60;1.88;;;;;;;16.31;42.69;96798.72;10310585;28;20034;-25
2023/04/06 07:44:05;;;;;;;8.88;2.10;;;;;;;16.32;43.32;96804.59;10343358;28;20479;-25
2023/04/06 07:49:06;;;;;;;6.13;1.60;;;;;;;16.35;43.33;96808.00;10317636;28;20069;-25
2023/04/06 07:54:08;;;;;;;12.70;1.83;;;;;;;16.32;43.90;96805.47;10317586;28;20412;-25
2023/04/06 07:59:08;;;;;;;7.47;1.50;;;;;;;16.32;43.05;96800.41;10332051;28;20081;-25
2023/04/06 08:04:09;;;;;;;3.70;1.40;;;;;;;16.31;42.62;96807.97;10335638;28;20293;-25
2023/04/06 08:09:09;;;;;;;2.88;1.45;;;;;;;16.31;43.05;96798.72;10309816;28;20030;-25
2023/04/06 08:14:10;;;;;;;2.47;1.55;;;;;;;16.35;42.70;96804.66;10347224;28;20022;-25
2023/04/06 08:19:11;;;;;;;4.47;1.50;;;;;;;16.32;43.79;96807.97;10342593;28;20482;-25
2023/04/06 08:24:12;;;;;;;6.30;1.80;;;;;;;16.33;43.53;96806.28;10329719;28;20281;-25
2023/04/06 08:29:12;;;;;;;5.78;1.95;;;;;;;16.36;42.20;96806.34;10312323;28;20443;-26
2023/04/06 08:34:13;;;;;;;4.60;1.55;;;;;;;16.32;42.47;96805.47;10335731;28;20062;-25
2023/04/06 08:39:13;;;;;;;5.17;1.73;;;;;;;16.28;43.47;96807.94;10339429;28;20026;-25
2023/04/06 08:44:14;;;;;;;3.38;1.80;;;;;;;16.31;45.53;96806.28;10333812;28;20292;-25
2023/04/06 08:49:16;;;;;;;1.65;1.40;;;;;;;16.36;45.33;96797.06;10320831;28;20041;-25
2023/04/06 08:54:16;;;;;;;4.28;1.48;;;;;;;16.34;44.63;96803.78;10333033;28;20463;-25
2023/04/06 08:59:17;;;;;;;3.70;1.70;;;;;;;16.32;43.80;96804.59;10358407;28;20030;-25
2023/04/06 09:04:17;;;;;;;5.22;2.50;;;;;;;16.31;41.14;96798.72;10349765;28;20042;-25
2023/04/06 09:09:18;;;;;;;2.67;2.03;;;;;;;16.33;39.81;96801.22;10332025;28;20050;-25
2023/04/06 09:14:38;;;;;;;2.63;1.67;;;;;;;16.36;39.66;96804.63;10337690;28;20030;-25
2023/04/06 09:19:48;;;;;;;4.80;2.40;;;;;;;16.36;41.86;96804.63;10323335;28;20285;-25
2023/04/06 09:24:51;;;;;;;4.07;2.13;;;;;;;16.34;42.28;96800.41;10342537;28;20097;-25
2023/04/06 09:30:05;;;;;;;5.68;2.15;;;;;;;16.36;42.45;96806.34;10321634;28;20405;-25
2023/04/06 09:35:09;;;;;;;3.42;2.05;;;;;;;16.36;42.60;96811.38;10333133;28;20038;-25
2023/04/06 09:40:10;;;;;;;3.65;2.00;;;;;;;16.34;42.22;96811.38;10339230;28;20105;-25
2023/04/06 09:45:10;;;;;;;6.97;1.90;;;;;;;16.32;41.90;96807.97;10340268;28;20030;-25
2023/04/06 09:50:13;;;;;;;3.60;1.90;;;;;;;16.36;42.62;96806.34;10336544;28;20478;-25
2023/04/06 09:55:20;;;;;;;4.32;2.22;;;;;;;16.36;42.05;96812.22;10339124;28;20287;-25
2023/04/06 10:00:23;;;;;;;6.72;1.65;;;;;;;16.33;42.11;96797.03;10336733;28;20030;-25
2023/04/06 10:05:41;;;;;;;3.00;1.83;;;;;;;16.43;41.23;96798.84;10313506;28;20057;-25
2023/04/06 10:10:42;;;;;;;3.03;1.88;;;;;;;16.48;41.97;96799.75;10332297;28;20052;-25
2023/04/06 10:15:44;;;;;;;2.83;1.55;;;;;;;16.40;43.84;96798.84;10339071;28;20034;-26
2023/04/06 10:21:06;;;;;;;4.10;1.23;;;;;;;16.42;44.07;96801.34;10335751;28;20482;-26
2023/04/06 10:26:13;;;;;;;3.67;1.63;;;;;;;16.42;43.25;96792.09;10329257;28;20064;-25
2023/04/06 10:31:14;;;;;;;3.22;1.77;;;;;;;16.42;44.88;96796.28;10319839;28;20479;-25
2023/04/06 10:36:22;;;;;;;3.75;1.85;;;;;;;16.41;41.60;96794.59;10318055;28;20030;-25
2023/04/06 10:41:22;;;;;;;5.07;1.88;;;;;;;16.41;43.29;96792.06;10336915;28;20481;-25
2023/04/06 10:46:27;;;;;;;1.50;1.08;;;;;;;16.38;43.65;96787.84;10330935;28;20034;-25
2023/04/06 10:51:28;;;;;;;4.97;1.77;;;;;;;16.33;44.37;96776.84;10343542;28;20041;-25
2023/04/06 10:56:30;;;;;;;1.73;1.30;;;;;;;16.38;43.07;96785.31;10338075;28;20414;-25
2023/04/06 11:01:30;;;;;;;3.90;1.52;;;;;;;16.38;42.49;96785.31;10345180;28;20568;-25
2023/04/06 11:06:32;;;;;;;3.60;1.60;;;;;;;16.41;42.79;96780.31;10324044;28;20058;-25
2023/04/06 11:11:32;;;;;;;4.82;1.48;;;;;;;16.43;42.24;96777.78;10329345;28;20098;-25
2023/04/06 11:16:33;;;;;;;4.55;1.45;;;;;;;16.43;43.30;96768.53;10328064;28;20034;-25
2023/04/06 11:21:41;;;;;;;5.82;1.83;;;;;;;16.45;44.53;96771.91;10347773;28;20041;-25
2023/04/06 11:26:48;;;;;;;4.03;1.27;;;;;;;16.53;43.58;96772.81;10332901;28;20042;-25
2023/04/06 11:31:51;;;;;;;4.70;1.65;;;;;;;16.51;43.10;96756.81;10328490;28;20072;-25
2023/04/06 11:37:05;;;;;;;10.02;1.75;;;;;;;16.46;43.33;96760.97;10328679;28;20042;-25
2023/04/06 11:42:06;;;;;;;9.38;2.13;;;;;;;16.44;41.91;96760.09;10320920;28;20041;-25
2023/04/06 11:47:09;;;;;;;7.07;1.65;;;;;;;16.42;41.85;96744.09;10336094;28;20034;-25
2023/04/06 11:52:22;;;;;;;7.32;1.75;;;;;;;16.38;41.51;96749.94;10316704;28;20057;-25
2023/04/06 11:57:27;;;;;;;4.68;1.70;;;;;;;16.35;40.73;96744.84;10344482;28;20026;-25
2023/04/06 12:02:28;;;;;;;7.30;2.45;;;;;;;16.30;39.16;96740.59;10326573;28;20117;-25
2023/04/06 12:07:30;;;;;;;4.03;1.40;;;;;;;16.33;42.29;96745.66;10338658;28;20041;-25
2023/04/06 12:12:31;;;;;;;5.68;1.55;;;;;;;16.32;41.50;96746.50;10333514;28;20445;-25
2023/04/06 12:17:31;;;;;;;6.78;1.70;;;;;;;16.36;40.15;96746.53;10345181;28;20084;-24
2023/04/06 12:22:31;;;;;;;8.20;1.63;;;;;;;16.38;40.74;96754.16;10316390;28;20483;-25
2023/04/06 12:27:32;;;;;;;4.20;1.30;;;;;;;16.37;40.12;96737.31;10340404;28;20350;-25
2023/04/06 12:32:33;;;;;;;1.90;1.30;;;;;;;16.38;40.72;96732.25;10305131;28;20348;-25
2023/04/06 12:37:33;;;;;;;9.03;1.97;;;;;;;16.39;44.18;96728.94;10309626;28;20038;-25
2023/04/06 12:42:33;;;;;;;4.07;1.10;;;;;;;16.48;42.79;96731.53;10318018;28;20290;-25
2023/04/06 12:47:35;;;;;;;4.10;1.63;;;;;;;16.49;44.30;96728.16;10309297;28;20746;-25
2023/04/06 12:52:38;;;;;;;1.60;1.10;;;;;;;16.43;45.88;96728.09;10321331;28;20297;-25
2023/04/06 12:57:40;;;;;;;3.67;1.10;;;;;;;16.42;42.65;96731.47;10334998;28;20053;-25
2023/04/06 13:02:46;;;;;;;4.32;1.52;;;;;;;16.39;42.02;96725.53;10333688;28;20063;-25
2023/04/06 13:07:47;;;;;;;2.20;1.00;;;;;;;16.38;41.55;96732.25;10341772;28;20410;-25
2023/04/06 13:12:47;;;;;;;1.13;1.03;;;;;;;16.36;41.65;96726.31;10333469;28;20042;-25
2023/04/06 13:17:48;;;;;;;2.73;1.07;;;;;;;16.35;41.37;96724.63;10342166;28;20292;-25
2023/04/06 13:22:48;;;;;;;1.98;0.93;;;;;;;16.36;40.73;96718.75;10356747;28;20658;-25
2023/04/06 13:27:49;;;;;;;1.50;1.07;;;;;;;16.37;41.71;96717.94;10352872;28;20049;-25
2023/04/06 13:32:50;;;;;;;2.28;1.10;;;;;;;16.35;41.39;96709.47;10333538;28;20312;-25
2023/04/06 13:37:52;;;;;;;2.55;1.15;;;;;;;16.35;41.16;96719.56;10340605;28;20038;-26
2023/04/06 13:42:52;;;;;;;2.10;1.00;;;;;;;16.34;40.90;96719.56;10339982;28;20490;-25
2023/04/06 13:47:53;;;;;;;3.47;1.20;;;;;;;16.35;40.34;96717.06;10332681;28;20030;-25
2023/04/06 13:52:53;;;;;;;2.03;1.10;;;;;;;16.32;39.98;96704.41;10330121;28;20670;-25
2023/04/06 13:57:54;;;;;;;1.23;0.93;;;;;;;16.42;43.74;96716.31;10339275;28;20046;-25
2023/04/06 14:02:55;;;;;;;2.65;1.13;;;;;;;16.46;45.09;96707.91;10340305;28;20123;-25
2023/04/06 14:07:55;;;;;;;3.47;1.20;;;;;;;16.46;46.53;96707.91;10339053;28;20046;-25
2023/04/06 14:12:57;;;;;;;3.67;1.30;;;;;;;16.35;43.90;96709.47;10338995;28;20121;-26
2023/04/06 14:17:58;;;;;;;2.25;1.15;;;;;;;16.36;42.16;96701.06;10339298;28;20442;-25
2023/04/06 14:23:02;;;;;;;1.60;1.20;;;;;;;16.37;41.47;96696.91;10347725;28;20042;-25
2023/04/06 14:28:02;;;;;;;0.93;0.80;;;;;;;16.34;40.98;96692.63;10355935;28;20034;-25
2023/04/06 14:33:03;;;;;;;4.07;1.30;;;;;;;16.36;42.70;96690.13;10340968;28;20038;-25
2023/04/06 14:38:03;;;;;;;1.42;1.00;;;;;;;16.34;41.49;96692.63;10338802;28;20069;-25
2023/04/06 14:43:04;;;;;;;1.27;1.00;;;;;;;16.34;40.97;96695.16;10337902;28;20096;-25
2023/04/06 14:48:06;;;;;;;2.17;1.00;;;;;;;16.37;40.65;96697.72;10338166;28;20040;-25
2023/04/06 14:53:07;;;;;;;4.25;1.58;;;;;;;16.28;40.15;96692.56;10329857;28;20038;-25
2023/04/06 14:58:07;;;;;;;2.70;1.05;;;;;;;16.32;39.77;96695.97;10324308;28;20030;-25
2023/04/06 15:03:08;;;;;;;1.52;1.10;;;;;;;16.36;40.06;96701.06;10329183;28;20121;-26
2023/04/06 15:08:13;;;;;;;2.05;1.23;;;;;;;16.33;39.64;96692.59;10319656;28;20034;-25
2023/04/06 15:13:14;;;;;;;1.27;1.05;;;;;;;16.31;39.95;96700.19;10336509;28;21224;-24
2023/04/06 15:18:15;;;;;;;1.30;1.10;;;;;;;16.41;46.36;96693.53;10291115;28;20046;-25
2023/04/06 15:23:18;;;;;;;1.45;0.98;;;;;;;16.44;48.00;96699.47;10337416;28;20029;-25
2023/04/06 15:28:18;;;;;;;1.45;0.90;;;;;;;16.40;44.27;96695.25;10329979;28;20065;-25
2023/04/06 15:33:20;;;;;;;1.65;1.05;;;;;;;16.34;42.38;96692.63;10344667;28;20457;-25
2023/04/06 15:38:20;;;;;;;2.55;1.30;;;;;;;16.36;41.44;96685.06;10329400;28;20045;-25
2023/04/06 15:43:21;;;;;;;3.55;1.55;;;;;;;16.40;40.26;96692.72;10335516;28;20510;-25
2023/04/06 15:48:23;;;;;;;1.67;1.10;;;;;;;16.37;39.95;96695.19;10331211;28;20034;-25
2023/04/06 15:53:23;;;;;;;6.05;1.58;;;;;;;16.36;42.64;96687.59;10317844;28;20372;-26
2023/04/06 15:58:24;;;;;;;3.85;1.00;;;;;;;16.37;39.60;96687.63;10334932;28;20088;-25
2023/04/06 16:03:27;;;;;;;9.55;1.55;;;;;;;16.39;40.70;96691.03;10330784;28;20034;-25
2023/04/06 16:08:27;;;;;;;2.33;1.42;;;;;;;16.39;40.40;96701.13;10339335;28;20084;-25
2023/04/06 16:13:27;;;;;;;1.87;1.07;;;;;;;16.41;41.10;96707.03;10344185;28;20036;-25
2023/04/06 16:18:29;;;;;;;3.67;1.35;;;;;;;16.38;40.86;96701.94;10328270;28;20365;-25
2023/04/06 16:23:30;;;;;;;3.83;1.00;;;;;;;16.44;42.60;96693.59;10331907;28;20495;-25
2023/04/06 16:28:31;;;;;;;1.90;1.07;;;;;;;16.43;41.36;96687.66;10329230;28;20033;-25
2023/04/06 16:33:32;;;;;;;3.97;1.15;;;;;;;16.48;45.50;96701.19;10321834;28;20297;-25
2023/04/06 16:38:34;;;;;;;3.13;1.10;;;;;;;16.54;41.54;96700.41;10323116;28;20042;-25
2023/04/06 16:43:35;;;;;;;5.55;1.48;;;;;;;16.51;43.99;96716.38;10325991;28;20296;-25
2023/04/06 16:48:35;;;;;;;3.10;0.95;;;;;;;16.47;41.32;96712.16;10339727;28;20041;-25
2023/04/06 16:53:37;;;;;;;2.22;1.42;;;;;;;16.45;39.95;96701.16;10338233;28;20045;-25
2023/04/06 16:58:38;;;;;;;3.20;1.20;;;;;;;16.36;40.25;96711.16;10336230;28;20041;-25
2023/04/06 17:03:38;;;;;;;4.82;1.52;;;;;;;16.40;38.99;96705.34;10346970;28;20493;-25
2023/04/06 17:08:40;;;;;;;3.43;1.07;;;;;;;16.34;39.00;96712.84;10347529;28;20038;-25
2023/04/06 17:13:41;;;;;;;4.55;0.80;;;;;;;16.37;39.88;96720.47;10343572;28;20678;-25
2023/04/06 17:18:41;;;;;;;1.38;0.98;;;;;;;16.34;39.31;96717.88;10349664;28;20030;-25
2023/04/06 17:23:42;;;;;;;3.53;1.10;;;;;;;16.35;39.79;96716.22;10345814;28;20026;-25
2023/04/06 17:28:44;;;;;;;1.50;1.20;;;;;;;16.34;39.50;96717.88;10336849;28;20061;-25
2023/04/06 17:33:44;;;;;;;1.52;0.98;;;;;;;16.33;40.11;96716.19;10333895;28;20034;-25
2023/04/06 17:38:45;;;;;;;1.07;0.80;;;;;;;16.33;40.16;96716.19;10343370;28;20110;-26
2023/04/06 17:43:46;;;;;;;1.90;1.08;;;;;;;16.31;40.48;96714.50;10329392;28;20304;-25
2023/04/06 17:48:47;;;;;;;1.48;0.93;;;;;;;16.33;39.09;96720.38;10336373;28;20045;-25
2023/04/06 17:53:47;;;;;;;1.65;1.15;;;;;;;16.41;48.99;96718.81;10367231;28;20434;-25
2023/04/06 17:58:48;;;;;;;1.33;0.98;;;;;;;16.42;48.53;96721.34;10343083;28;20036;-25
2023/04/06 18:03:49;;;;;;;1.65;1.20;;;;;;;16.36;46.66;96726.31;10337681;28;20480;-25
2023/04/06 18:08:49;;;;;;;2.53;0.90;;;;;;;16.32;41.56;96729.66;10341503;28;20038;-25
2023/04/06 18:13:50;;;;;;;1.88;0.90;;;;;;;16.32;40.12;96728.81;10339033;28;20577;-26
2023/04/06 18:18:50;;;;;;;2.25;1.00;;;;;;;16.32;39.55;96731.34;10337532;28;20036;-26
2023/04/06 18:23:51;;;;;;;1.88;1.20;;;;;;;16.30;39.40;96728.78;10332843;28;20053;-25
2023/04/06 18:28:52;;;;;;;1.65;1.02;;;;;;;16.30;38.97;96731.31;10344820;28;20034;-25
2023/04/06 18:33:52;;;;;;;2.27;1.20;;;;;;;16.30;39.23;96730.47;10332256;28;20034;-25
2023/04/06 18:38:55;;;;;;;0.95;0.73;;;;;;;16.28;39.26;96720.34;10345369;28;20330;-25
2023/04/06 18:43:55;;;;;;;1.50;1.23;;;;;;;16.28;39.02;96730.47;10338929;28;20034;-25
2023/04/06 18:48:56;;;;;;;1.10;0.90;;;;;;;16.27;38.92;96733.81;10327377;28;20029;-25
2023/04/06 18:53:56;;;;;;;1.33;0.95;;;;;;;16.26;38.78;96726.22;10331039;28;20038;-25
2023/04/06 18:58:57;;;;;;;1.10;0.85;;;;;;;16.25;38.97;96722.88;10353590;28;20030;-25
2023/04/06 19:03:58;;;;;;;1.20;0.93;;;;;;;16.24;39.04;96716.13;10329718;28;20030;-25
2023/04/06 19:08:58;;;;;;;1.85;0.98;;;;;;;16.29;40.28;96719.53;10337024;28;20305;-25
2023/04/06 19:13:59;;;;;;;1.73;1.20;;;;;;;16.36;49.77;96718.75;10330221;28;20109;-25
2023/04/06 19:18:59;;;;;;;1.00;0.80;;;;;;;16.38;50.28;96727.19;10336908;28;20042;-25
2023/04/06 19:24:00;;;;;;;2.45;1.23;;;;;;;16.33;43.40;96720.38;10352478;28;20073;-25
2023/04/06 19:29:00;;;;;;;1.30;0.80;;;;;;;16.31;40.06;96722.06;10328447;28;20038;-25
2023/04/06 19:34:01;;;;;;;1.30;1.02;;;;;;;16.28;39.36;96727.94;10335990;28;20034;-25
2023/04/06 19:39:01;;;;;;;1.27;1.10;;;;;;;16.25;39.14;96725.41;10327652;28;20062;-25
2023/04/06 19:44:02;;;;;;;1.00;0.88;;;;;;;16.25;39.33;96729.59;10336801;28;20117;-25
2023/04/06 19:49:02;;;;;;;1.67;1.08;;;;;;;16.24;39.23;96730.41;10329131;28;20105;-25
2023/04/06 19:54:04;;;;;;;1.75;1.05;;;;;;;16.23;39.16;96729.59;10327668;28;20103;-25
2023/04/06 19:59:06;;;;;;;1.20;0.90;;;;;;;16.20;38.92;96732.06;10336340;28;20494;-25
2023/04/06 20:04:06;;;;;;;1.02;0.93;;;;;;;16.22;38.99;96730.44;10344587;28;20053;-25
2023/04/06 20:09:07;;;;;;;3.42;1.20;;;;;;;16.21;38.65;96737.97;10318393;28;20037;-25
2023/04/06 20:14:07;;;;;;;2.08;1.23;;;;;;;16.22;38.73;96732.97;10334807;28;20037;-25
2023/04/06 20:19:08;;;;;;;2.50;1.15;;;;;;;16.10;38.96;96721.91;10311429;28;20487;-26
2023/04/06 20:24:10;;;;;;;1.40;1.00;;;;;;;16.18;39.03;96725.34;10318028;28;20038;-25
2023/04/06 20:29:10;;;;;;;1.10;0.93;;;;;;;16.27;45.39;96728.78;10327091;28;20042;-25
2023/04/06 20:34:11;;;;;;;1.03;0.80;;;;;;;16.34;50.28;96724.59;10334680;28;20030;-25
2023/04/06 20:39:11;;;;;;;2.57;0.90;;;;;;;16.33;50.24;96711.16;10334554;28;20277;-26
2023/04/06 20:44:12;;;;;;;1.88;1.25;;;;;;;16.27;41.79;96716.13;10326418;28;20100;-26
2023/04/06 20:49:13;;;;;;;1.97;1.20;;;;;;;16.24;39.65;96716.13;10313734;28;20041;-25
2023/04/06 20:54:13;;;;;;;1.55;1.40;;;;;;;16.17;39.18;96709.31;10333554;28;20814;-26
2023/04/06 20:59:14;;;;;;;1.48;1.23;;;;;;;16.19;39.31;96707.66;10326238;28;20042;-25
2023/04/06 21:04:14;;;;;;;2.10;1.70;;;;;;;16.18;39.25;96698.38;10330263;28;20078;-25
2023/04/06 21:09:15;;;;;;;2.60;1.55;;;;;;;16.17;39.15;96701.75;10340739;28;20062;-26
2023/04/06 21:14:16;;;;;;;1.92;1.63;;;;;;;16.16;39.23;96712.69;10327895;28;20072;-26
2023/04/06 21:19:16;;;;;;;3.40;1.90;;;;;;;16.15;39.21;96690.78;10322382;28;20506;-25
2023/04/06 21:24:17;;;;;;;2.55;1.70;;;;;;;16.13;38.98;96696.66;10346493;28;20117;-25
2023/04/06 21:29:17;;;;;;;1.83;1.58;;;;;;;16.15;39.17;96695.84;10350389;28;20376;-25
2023/04/06 21:34:18;;;;;;;1.90;1.47;;;;;;;16.16;39.99;96684.03;10325784;28;20057;-25
2023/04/06 21:39:18;;;;;;;1.90;1.43;;;;;;;16.21;40.58;96693.34;10328151;28;20285;-26
2023/04/06 21:44:19;;;;;;;3.25;1.70;;;;;;;16.21;40.76;96695.88;10349006;28;20038;-25
2023/04/06 21:49:19;;;;;;;1.17;0.70;;;;;;;16.28;49.78;96697.63;10358419;28;20045;-25
2023/04/06 21:54:20;;;;;;;1.20;0.93;;;;;;;16.33;49.88;96693.47;10335910;28;20491;-25
2023/04/06 21:59:20;;;;;;;0.90;0.80;;;;;;;16.32;49.58;96691.78;10346914;28;20269;-25
2023/04/06 22:04:21;;;;;;;1.08;0.80;;;;;;;16.29;47.33;96689.19;10345463;28;20057;-25
2023/04/06 22:09:22;;;;;;;1.00;0.90;;;;;;;16.27;43.36;96687.53;10352904;28;20042;-25
2023/04/06 22:14:24;;;;;;;1.02;0.90;;;;;;;16.27;43.27;96688.34;10338591;28;20050;-25
2023/04/06 22:19:25;;;;;;;2.00;1.35;;;;;;;16.25;43.36;96677.41;10347703;28;20022;-25
2023/04/06 22:24:25;;;;;;;1.05;0.95;;;;;;;16.25;42.73;96682.44;10327398;28;20034;-25
2023/04/06 22:29:26;;;;;;;1.80;0.85;;;;;;;16.24;42.38;96684.94;10344845;28;20177;-25
2023/04/06 22:34:26;;;;;;;1.75;0.88;;;;;;;16.25;42.75;96677.41;10332102;28;20105;-25
2023/04/06 22:39:26;;;;;;;1.33;0.80;;;;;;;16.23;42.57;96668.13;10338120;28;20041;-25
2023/04/06 22:44:27;;;;;;;1.07;0.83;;;;;;;16.22;42.84;96662.22;10354941;28;20030;-25
2023/04/06 22:49:27;;;;;;;1.20;0.80;;;;;;;16.23;42.11;96658.88;10338218;28;20355;-25
2023/04/06 22:54:28;;;;;;;1.07;0.80;;;;;;;16.22;42.82;96651.28;10341538;28;20285;-25
2023/04/06 22:59:28;;;;;;;1.33;1.13;;;;;;;16.23;42.28;96652.94;10320708;28;20269;-25
2023/04/06 23:04:29;;;;;;;2.00;1.10;;;;;;;16.22;42.39;96652.13;10329083;28;20042;-25
2023/04/06 23:09:29;;;;;;;0.85;0.77;;;;;;;16.29;50.32;96648.78;10317282;28;20574;-25
2023/04/06 23:14:31;;;;;;;1.17;0.70;;;;;;;16.33;50.74;96635.34;10345605;28;20500;-25
2023/04/06 23:19:31;;;;;;;1.00;0.90;;;;;;;16.28;49.01;96637.00;10344660;28;20513;-25
2023/04/06 23:24:32;;;;;;;0.98;0.80;;;;;;;16.27;48.00;96629.44;10310769;28;20038;-25